createdAt,value
2018-07-19T00:00:54.735Z,99.90
2018-07-19T00:03:23.197Z,99.90
2018-07-19T00:05:51.701Z,99.90
2018-07-19T00:08:20.156Z,99.90
2018-07-19T00:13:16.774Z,99.90
2018-07-19T00:15:45.274Z,99.90
2018-07-19T00:18:13.770Z,99.90
2018-07-19T00:20:42.235Z,99.90
2018-07-19T00:23:10.702Z,99.90
2018-07-19T00:25:39.166Z,99.90
2018-07-19T00:28:07.730Z,99.90
2018-07-19T00:30:36.205Z,99.90
2018-07-19T00:33:04.685Z,99.90
2018-07-19T00:35:33.178Z,99.90
2018-07-19T00:38:01.645Z,99.90
2018-07-19T00:40:30.115Z,99.90
2018-07-19T00:42:58.618Z,99.90
2018-07-19T00:45:27.094Z,99.90
2018-07-19T00:47:55.551Z,99.90
2018-07-19T00:50:24.016Z,99.90
2018-07-19T00:52:52.479Z,99.90
2018-07-19T00:55:20.953Z,99.90
2018-07-19T00:57:49.457Z,99.90
2018-07-19T01:00:17.964Z,99.90
2018-07-19T01:02:46.446Z,99.90
2018-07-19T01:05:14.907Z,99.90
2018-07-19T01:07:43.379Z,99.90
2018-07-19T01:10:11.949Z,99.90
2018-07-19T01:12:40.394Z,99.90
2018-07-19T01:15:08.866Z,99.90
2018-07-19T01:17:37.355Z,99.90
2018-07-19T01:20:05.886Z,99.90
2018-07-19T01:22:34.347Z,99.90
2018-07-19T01:25:02.834Z,99.90
2018-07-19T01:27:31.300Z,99.90
2018-07-19T01:29:59.758Z,99.90
2018-07-19T01:32:28.244Z,99.90
2018-07-19T01:34:56.689Z,99.90
2018-07-19T01:37:25.160Z,99.90
2018-07-19T01:39:53.646Z,99.90
2018-07-19T01:42:30.246Z,99.90
2018-07-19T01:44:58.758Z,99.90
2018-07-19T01:47:27.268Z,99.90
2018-07-19T01:49:55.745Z,99.90
2018-07-19T01:52:24.238Z,99.90
2018-07-19T01:54:52.744Z,99.90
2018-07-19T01:57:21.621Z,99.90
2018-07-19T01:59:50.702Z,99.90
2018-07-19T02:02:19.691Z,99.90
2018-07-19T02:04:48.178Z,99.90
2018-07-19T02:07:16.710Z,99.90
2018-07-19T02:09:45.843Z,99.90
2018-07-19T02:12:14.293Z,99.90
2018-07-19T02:14:42.743Z,99.90
2018-07-19T02:17:11.198Z,99.90
2018-07-19T02:19:39.645Z,99.90
2018-07-19T02:22:08.167Z,99.90
2018-07-19T02:24:36.644Z,99.90
2018-07-19T02:27:05.122Z,99.90
2018-07-19T02:29:33.609Z,99.90
2018-07-19T02:32:02.111Z,99.90
2018-07-19T02:34:30.674Z,99.90
2018-07-19T02:36:59.125Z,99.90
2018-07-19T02:39:27.620Z,99.90
2018-07-19T02:41:56.086Z,99.90
2018-07-19T02:44:24.627Z,99.90
2018-07-19T02:46:53.071Z,99.90
2018-07-19T02:49:21.580Z,99.90
2018-07-19T02:51:50.050Z,99.90
2018-07-19T02:54:18.593Z,99.90
2018-07-19T02:56:47.064Z,99.90
2018-07-19T02:59:15.533Z,99.90
2018-07-19T03:01:44.015Z,99.90
2018-07-19T03:06:40.638Z,99.90
2018-07-19T03:09:09.109Z,99.90
2018-07-19T03:11:37.593Z,99.90
2018-07-19T03:14:06.040Z,99.90
2018-07-19T03:16:34.553Z,99.90
2018-07-19T03:19:03.086Z,99.90
2018-07-19T03:21:31.554Z,99.90
2018-07-19T03:23:59.998Z,99.90
2018-07-19T03:26:28.453Z,99.90
2018-07-19T03:28:56.900Z,99.90
2018-07-19T03:31:25.377Z,99.90
2018-07-19T03:33:53.829Z,99.90
2018-07-19T03:36:22.280Z,99.90
2018-07-19T03:38:50.713Z,99.90
2018-07-19T03:41:19.165Z,99.90
2018-07-19T03:43:47.613Z,99.90
2018-07-19T03:46:16.049Z,99.90
2018-07-19T03:48:44.486Z,99.90
2018-07-19T03:51:12.922Z,99.90
2018-07-19T03:53:41.377Z,99.90
2018-07-19T03:56:09.830Z,99.90
2018-07-19T03:58:38.307Z,99.90
2018-07-19T04:01:07.056Z,99.90
2018-07-19T04:03:35.584Z,99.90
2018-07-19T04:06:04.030Z,99.90
2018-07-19T04:08:32.449Z,99.90
2018-07-19T04:11:01.288Z,99.90
2018-07-19T04:13:31.698Z,99.90
2018-07-19T04:16:00.142Z,99.90
2018-07-19T04:18:28.616Z,99.90
2018-07-19T04:20:59.111Z,99.90
2018-07-19T04:23:29.152Z,99.90
2018-07-19T04:25:59.936Z,99.90
2018-07-19T04:28:30.128Z,99.90
2018-07-19T04:33:29.754Z,99.90
2018-07-19T04:35:58.258Z,99.90
2018-07-19T04:38:26.723Z,99.90
2018-07-19T04:40:55.219Z,99.90
2018-07-19T04:43:23.690Z,99.90
2018-07-19T04:45:52.155Z,99.90
2018-07-19T04:48:20.770Z,99.90
2018-07-19T04:50:49.106Z,99.90
2018-07-19T04:53:17.566Z,99.90
2018-07-19T04:55:46.023Z,99.90
2018-07-19T04:58:14.501Z,99.90
2018-07-19T05:00:42.989Z,99.90
2018-07-19T05:03:11.454Z,99.90
2018-07-19T05:05:39.934Z,99.90
2018-07-19T05:08:08.369Z,99.90
2018-07-19T05:10:36.817Z,99.90
2018-07-19T05:13:05.281Z,99.90
2018-07-19T05:15:33.713Z,99.90
2018-07-19T05:18:02.169Z,99.90
2018-07-19T05:20:30.633Z,99.90
2018-07-19T05:22:59.089Z,99.90
2018-07-19T05:25:27.518Z,99.90
2018-07-19T05:27:55.965Z,99.90
2018-07-19T05:30:24.426Z,99.90
2018-07-19T05:32:52.884Z,99.90
2018-07-19T05:35:21.574Z,99.90
2018-07-19T05:37:50.054Z,99.90
2018-07-19T05:40:18.489Z,99.90
2018-07-19T05:42:46.925Z,99.90
2018-07-19T05:45:15.387Z,99.90
2018-07-19T05:47:43.858Z,99.90
2018-07-19T05:50:12.309Z,99.90
2018-07-19T05:52:40.741Z,99.90
2018-07-19T05:55:09.187Z,99.90
2018-07-19T05:57:37.677Z,99.90
2018-07-19T06:00:06.202Z,99.90
2018-07-19T06:02:34.684Z,99.90
2018-07-19T06:05:03.159Z,99.90
2018-07-19T06:07:31.618Z,99.90
2018-07-19T06:10:00.070Z,99.90
2018-07-19T06:12:28.513Z,99.90
2018-07-19T06:14:56.944Z,99.90
2018-07-19T06:17:25.420Z,99.90
2018-07-19T06:19:53.851Z,99.90
2018-07-19T06:22:22.401Z,99.90
2018-07-19T06:24:50.849Z,99.90
2018-07-19T06:27:19.306Z,99.90
2018-07-19T06:29:47.763Z,99.90
2018-07-19T06:32:16.243Z,99.90
2018-07-19T06:34:44.685Z,99.90
2018-07-19T06:37:13.125Z,99.90
2018-07-19T06:39:41.561Z,98.00
2018-07-19T06:42:10.079Z,97.60
2018-07-19T06:44:38.558Z,97.40
2018-07-19T06:47:07.062Z,94.60
2018-07-19T06:49:35.509Z,94.00
2018-07-19T06:52:04.073Z,92.50
2018-07-19T06:54:32.518Z,89.40
2018-07-19T06:57:00.999Z,88.90
2018-07-19T06:59:29.452Z,83.60
2018-07-19T07:01:57.912Z,83.10
2018-07-19T07:04:26.342Z,79.90
2018-07-19T07:06:54.834Z,74.20
2018-07-19T07:09:23.300Z,70.40
2018-07-19T07:11:51.729Z,70.50
2018-07-19T07:14:20.869Z,67.60
2018-07-19T07:16:49.334Z,66.20
2018-07-19T07:19:17.767Z,64.00
2018-07-19T07:21:46.197Z,59.20
2018-07-19T07:24:14.669Z,58.00
2018-07-19T07:26:43.097Z,57.30
2018-07-19T07:29:11.537Z,57.80
2018-07-19T07:31:40.013Z,57.60
2018-07-19T07:34:09.024Z,56.30
2018-07-19T07:36:39.353Z,57.70
2018-07-19T07:39:09.823Z,57.50
2018-07-19T07:41:38.506Z,55.20
2018-07-19T07:44:07.004Z,54.20
2018-07-19T07:46:35.412Z,52.10
2018-07-19T07:51:31.981Z,51.60
2018-07-19T07:54:02.825Z,51.20
2018-07-19T07:56:31.413Z,53.30
2018-07-19T07:59:00.321Z,54.80
2018-07-19T08:01:28.773Z,53.00
2018-07-19T08:03:57.224Z,55.60
2018-07-19T08:06:25.690Z,54.50
2018-07-19T08:08:54.147Z,55.50
2018-07-19T08:11:22.573Z,53.20
2018-07-19T08:16:19.327Z,49.70
2018-07-19T08:18:47.792Z,51.10
2018-07-19T08:21:16.278Z,51.10
2018-07-19T08:23:44.713Z,51.30
2018-07-19T08:26:13.254Z,47.00
2018-07-19T08:28:41.701Z,47.70
2018-07-19T08:31:10.133Z,47.70
2018-07-19T08:33:38.576Z,45.20
2018-07-19T08:36:07.083Z,44.10
2018-07-19T08:41:03.666Z,46.70
2018-07-19T08:43:32.154Z,46.60
2018-07-19T08:46:00.664Z,43.80
2018-07-19T08:48:29.117Z,42.80
2018-07-19T08:50:57.578Z,42.40
2018-07-19T08:53:26.166Z,42.00
2018-07-19T08:55:54.675Z,42.10
2018-07-19T08:58:23.178Z,41.80
2018-07-19T09:00:51.814Z,41.70
2018-07-19T09:03:21.260Z,41.30
2018-07-19T09:05:49.740Z,41.40
2018-07-19T09:08:18.227Z,42.30
2018-07-19T09:13:16.234Z,40.60
2018-07-19T09:15:44.702Z,41.10
2018-07-19T09:18:13.189Z,41.00
2018-07-19T09:20:41.913Z,41.00
2018-07-19T09:23:10.353Z,40.60
2018-07-19T09:25:38.825Z,38.20
2018-07-19T09:28:07.288Z,36.20
2018-07-19T09:30:35.854Z,36.60
2018-07-19T09:33:04.365Z,36.80
2018-07-19T09:35:32.865Z,37.50
2018-07-19T09:38:01.309Z,36.30
2018-07-19T09:40:29.786Z,35.60
2018-07-19T09:42:59.427Z,35.80
2018-07-19T09:45:27.830Z,36.10
2018-07-19T09:47:56.266Z,36.40
2018-07-19T09:50:24.705Z,37.60
2018-07-19T09:52:53.189Z,36.90
2018-07-19T09:55:21.657Z,37.60
2018-07-19T09:57:50.253Z,36.50
2018-07-19T10:00:23.950Z,37.40
2018-07-19T10:02:52.439Z,37.60
2018-07-19T10:05:20.894Z,36.60
2018-07-19T10:07:49.366Z,37.10
2018-07-19T10:10:17.841Z,37.40
2018-07-19T10:12:46.308Z,35.90
2018-07-19T10:15:14.766Z,35.30
2018-07-19T10:17:43.183Z,35.90
2018-07-19T10:20:11.647Z,37.30
2018-07-19T10:22:40.097Z,38.80
2018-07-19T10:25:08.710Z,37.90
2018-07-19T10:27:37.142Z,36.30
2018-07-19T10:30:07.563Z,36.80
2018-07-19T10:32:37.189Z,37.20
2018-07-19T10:35:05.565Z,37.00
2018-07-19T10:37:34.076Z,37.50
2018-07-19T10:40:02.629Z,38.00
2018-07-19T10:42:31.081Z,38.70
2018-07-19T10:44:59.633Z,37.20
2018-07-19T10:47:28.154Z,36.90
2018-07-19T10:49:56.603Z,37.60
2018-07-19T10:52:25.377Z,36.90
2018-07-19T10:54:53.963Z,36.50
2018-07-19T10:57:22.502Z,38.40
2018-07-19T10:59:50.910Z,37.80
2018-07-19T11:02:19.375Z,36.60
2018-07-19T11:04:47.790Z,36.30
2018-07-19T11:07:16.255Z,37.80
2018-07-19T11:09:44.767Z,36.60
2018-07-19T11:12:13.232Z,36.40
2018-07-19T11:14:41.789Z,36.40
2018-07-19T11:17:10.230Z,37.00
2018-07-19T11:19:39.317Z,35.30
2018-07-19T11:22:07.782Z,36.50
2018-07-19T11:24:36.222Z,37.10
2018-07-19T11:27:04.897Z,38.60
2018-07-19T11:29:33.438Z,39.50
2018-07-19T11:32:01.869Z,38.80
2018-07-19T11:34:30.379Z,38.80
2018-07-19T11:36:58.849Z,39.40
2018-07-19T11:39:27.284Z,39.40
2018-07-19T11:41:55.698Z,39.50
2018-07-19T11:44:24.151Z,37.70
2018-07-19T11:46:52.610Z,36.60
2018-07-19T11:49:21.098Z,36.90
2018-07-19T11:51:49.526Z,34.80
2018-07-19T11:54:17.961Z,34.60
2018-07-19T11:56:46.392Z,34.10
2018-07-19T11:59:14.813Z,34.30
2018-07-19T12:01:43.287Z,33.30
2018-07-19T12:04:11.958Z,33.30
2018-07-19T12:06:40.501Z,35.20
2018-07-19T12:09:10.781Z,35.20
2018-07-19T12:11:39.210Z,36.40
2018-07-19T12:14:07.794Z,36.10
2018-07-19T12:16:36.209Z,34.50
2018-07-19T12:19:04.693Z,35.00
2018-07-19T12:21:33.242Z,35.80
2018-07-19T12:24:01.990Z,34.90
2018-07-19T12:26:30.478Z,36.60
2018-07-19T12:28:59.130Z,35.40
2018-07-19T12:31:27.550Z,33.50
2018-07-19T12:33:56.004Z,35.70
2018-07-19T12:36:24.426Z,35.30
2018-07-19T12:38:52.867Z,36.00
2018-07-19T12:41:21.304Z,36.10
2018-07-19T12:43:49.730Z,37.80
2018-07-19T12:46:18.145Z,37.40
2018-07-19T12:48:46.554Z,36.90
2018-07-19T12:51:14.985Z,37.50
2018-07-19T12:53:43.396Z,36.40
2018-07-19T12:56:11.826Z,38.00
2018-07-19T12:58:40.261Z,36.10
2018-07-19T13:01:08.816Z,36.00
2018-07-19T13:03:37.253Z,36.70
2018-07-19T13:06:05.691Z,37.80
2018-07-19T13:08:34.130Z,37.50
2018-07-19T13:11:02.590Z,38.10
2018-07-19T13:13:30.993Z,37.60
2018-07-19T13:15:59.420Z,39.40
2018-07-19T13:18:27.857Z,39.40
2018-07-19T13:20:56.308Z,41.30
2018-07-19T13:25:52.901Z,39.00
2018-07-19T13:28:21.364Z,39.20
2018-07-19T13:30:49.832Z,40.90
2018-07-19T13:33:18.255Z,38.80
2018-07-19T13:35:46.709Z,39.20
2018-07-19T13:38:15.113Z,38.60
2018-07-19T13:40:43.582Z,38.60
2018-07-19T13:43:11.988Z,39.60
2018-07-19T13:45:40.401Z,37.90
2018-07-19T13:48:08.824Z,38.10
2018-07-19T13:50:37.283Z,38.20
2018-07-19T13:53:32.475Z,37.50
2018-07-19T13:56:00.893Z,37.70
2018-07-19T13:58:29.378Z,39.00
2018-07-19T14:00:57.842Z,38.60
2018-07-19T14:03:26.257Z,38.90
2018-07-19T14:05:54.829Z,38.00
2018-07-19T14:08:23.751Z,39.10
2018-07-19T14:10:52.199Z,38.60
2018-07-19T14:13:20.749Z,39.40
2018-07-19T14:15:49.342Z,38.90
2018-07-19T14:18:17.776Z,38.30
2018-07-19T14:20:46.181Z,39.60
2018-07-19T14:23:14.594Z,40.10
2018-07-19T14:25:43.622Z,39.50
2018-07-19T14:28:12.406Z,41.40
2018-07-19T14:30:40.984Z,39.90
2018-07-19T14:33:09.890Z,40.20
2018-07-19T14:35:38.318Z,39.50
2018-07-19T14:38:07.235Z,39.40
2018-07-19T14:40:35.760Z,38.60
2018-07-19T14:43:04.201Z,40.30
2018-07-19T14:45:32.672Z,38.90
2018-07-19T14:48:01.461Z,40.20
2018-07-19T14:50:30.389Z,39.90
2018-07-19T14:52:59.456Z,40.20
2018-07-19T14:55:28.235Z,40.00
2018-07-19T14:57:56.714Z,40.00
2018-07-19T15:00:26.391Z,39.60
2018-07-19T15:02:55.392Z,40.40
2018-07-19T15:05:23.840Z,39.80
2018-07-19T15:07:53.458Z,39.90
2018-07-19T15:10:22.023Z,39.00
2018-07-19T15:12:50.508Z,40.60
2018-07-19T15:15:18.940Z,41.70
2018-07-19T15:17:47.445Z,40.00
2018-07-19T15:20:15.969Z,40.60
2018-07-19T15:22:44.492Z,40.90
2018-07-19T15:25:12.920Z,40.40
2018-07-19T15:27:41.367Z,40.50
2018-07-19T15:30:09.848Z,41.70
2018-07-19T15:32:38.274Z,40.70
2018-07-19T15:35:08.391Z,41.50
2018-07-19T15:37:37.867Z,41.20
2018-07-19T15:40:06.845Z,40.30
2018-07-19T15:42:35.245Z,41.30
2018-07-19T15:45:03.822Z,41.60
2018-07-19T15:47:32.264Z,41.40
2018-07-19T15:50:00.691Z,40.20
2018-07-19T15:52:29.161Z,42.10
2018-07-19T15:54:57.595Z,41.90
2018-07-19T15:57:26.138Z,41.10
2018-07-19T15:59:54.584Z,41.10
2018-07-19T16:02:23.013Z,40.90
2018-07-19T16:04:51.494Z,42.00
2018-07-19T16:07:19.942Z,42.80
2018-07-19T16:09:48.378Z,41.00
2018-07-19T16:12:16.864Z,41.10
2018-07-19T16:14:45.359Z,42.40
2018-07-19T16:17:13.798Z,42.30
2018-07-19T16:19:42.228Z,40.90
2018-07-19T16:22:10.671Z,41.10
2018-07-19T16:24:39.218Z,42.70
2018-07-19T16:27:07.702Z,42.20
2018-07-19T16:29:36.119Z,41.70
2018-07-19T16:32:04.561Z,40.90
2018-07-19T16:34:33.007Z,43.30
2018-07-19T16:37:01.439Z,42.30
2018-07-19T16:39:29.908Z,42.00
2018-07-19T16:41:58.345Z,42.30
2018-07-19T16:44:26.809Z,42.50
2018-07-19T16:46:55.262Z,42.10
2018-07-19T16:49:23.690Z,42.10
2018-07-19T16:51:52.150Z,43.00
2018-07-19T16:54:20.610Z,41.90
2018-07-19T16:56:49.040Z,41.50
2018-07-19T16:59:17.528Z,40.60
2018-07-19T17:01:46.029Z,41.70
2018-07-19T17:04:14.461Z,42.50
2018-07-19T17:06:44.930Z,43.00
2018-07-19T17:09:13.373Z,43.50
2018-07-19T17:11:41.927Z,42.40
2018-07-19T17:14:10.401Z,43.50
2018-07-19T17:16:38.854Z,43.40
2018-07-19T17:19:07.279Z,42.40
2018-07-19T17:21:35.811Z,43.80
2018-07-19T17:24:05.050Z,42.50
2018-07-19T17:26:35.866Z,44.00
2018-07-19T17:29:05.050Z,43.20
2018-07-19T17:31:34.799Z,42.80
2018-07-19T17:34:03.970Z,43.20
2018-07-19T17:36:32.418Z,45.80
2018-07-19T17:39:00.858Z,45.60
2018-07-19T17:41:29.318Z,47.10
2018-07-19T17:43:57.777Z,46.60
2018-07-19T17:46:26.338Z,47.90
2018-07-19T17:48:54.773Z,49.00
2018-07-19T17:51:23.198Z,52.40
2018-07-19T17:53:51.645Z,52.70
2018-07-19T17:56:22.134Z,52.80
2018-07-19T17:58:50.619Z,52.20
2018-07-19T18:01:19.708Z,52.80
2018-07-19T18:03:48.157Z,54.20
2018-07-19T18:06:16.583Z,55.30
2018-07-19T18:08:45.025Z,58.50
2018-07-19T18:11:13.483Z,59.70
2018-07-19T18:13:41.923Z,64.50
2018-07-19T18:16:10.337Z,71.90
2018-07-19T18:18:38.774Z,78.00
2018-07-19T18:21:07.229Z,85.50
2018-07-19T18:23:35.670Z,88.10
2018-07-19T18:26:04.102Z,77.50
2018-07-19T18:28:33.752Z,76.00
2018-07-19T18:31:02.206Z,90.80
2018-07-19T18:33:30.697Z,91.00
2018-07-19T18:38:27.276Z,99.30
2018-07-19T18:41:02.275Z,99.90
2018-07-19T18:43:30.726Z,99.90
2018-07-19T18:45:59.200Z,99.90
2018-07-19T18:48:27.636Z,99.90
2018-07-19T18:51:04.765Z,99.90
2018-07-19T18:53:34.898Z,99.90
2018-07-19T18:56:03.334Z,99.90
2018-07-19T18:58:31.793Z,99.90
2018-07-19T19:01:00.253Z,99.90
2018-07-19T19:03:28.669Z,99.90
2018-07-19T19:05:57.118Z,99.90
2018-07-19T19:08:25.642Z,99.90
2018-07-19T19:10:54.324Z,99.90
2018-07-19T19:13:23.031Z,99.90
2018-07-19T19:18:20.627Z,99.90
2018-07-19T19:20:49.423Z,99.90
2018-07-19T19:23:17.985Z,99.90
2018-07-19T19:25:50.785Z,99.90
2018-07-19T19:28:19.617Z,99.90
2018-07-19T19:30:48.128Z,99.90
2018-07-19T19:33:16.980Z,99.90
2018-07-19T19:35:45.597Z,99.90
2018-07-19T19:38:14.127Z,99.90
2018-07-19T19:40:43.687Z,99.90
2018-07-19T19:43:12.257Z,99.90
2018-07-19T19:45:41.243Z,99.90
2018-07-19T19:48:09.811Z,99.90
2018-07-19T19:50:38.310Z,99.90
2018-07-19T19:53:09.360Z,99.90
2018-07-19T19:55:38.097Z,99.90
2018-07-19T19:58:06.814Z,99.90
2018-07-19T20:00:35.486Z,99.90
2018-07-19T20:03:04.264Z,99.90
2018-07-19T20:05:32.809Z,99.90
2018-07-19T20:08:01.554Z,99.90
2018-07-19T20:10:30.184Z,99.90
2018-07-19T20:12:58.761Z,99.90
2018-07-19T20:15:27.429Z,99.90
2018-07-19T20:17:56.286Z,99.90
2018-07-19T20:20:25.034Z,99.90
2018-07-19T20:22:53.776Z,99.90
2018-07-19T20:25:22.343Z,99.90
2018-07-19T20:28:07.088Z,99.90
2018-07-19T20:30:37.754Z,99.90
2018-07-19T20:33:06.467Z,99.90
2018-07-19T20:35:35.389Z,99.90
2018-07-19T20:38:04.445Z,99.90
2018-07-19T20:40:34.009Z,99.90
2018-07-19T20:43:02.543Z,99.90
2018-07-19T20:45:31.391Z,99.90
2018-07-19T20:47:59.994Z,99.90
2018-07-19T20:50:28.731Z,99.90
2018-07-19T20:52:57.354Z,99.90
2018-07-19T20:55:25.838Z,99.90
2018-07-19T20:57:54.391Z,99.90
2018-07-19T21:00:22.912Z,99.90
2018-07-19T21:02:53.401Z,99.90
2018-07-19T21:05:21.899Z,99.90
2018-07-19T21:07:50.329Z,99.90
2018-07-19T21:12:46.926Z,99.90
2018-07-19T21:15:15.394Z,99.90
2018-07-19T21:17:47.906Z,99.90
2018-07-19T21:20:19.439Z,99.90
2018-07-19T21:22:51.187Z,99.90
2018-07-19T21:25:21.564Z,99.90
2018-07-19T21:27:50.668Z,99.90
2018-07-19T21:30:20.275Z,99.90
2018-07-19T21:32:49.793Z,99.90
2018-07-19T21:35:18.297Z,99.90
2018-07-19T21:37:46.742Z,99.90
2018-07-19T21:40:15.278Z,99.90
2018-07-19T21:42:43.768Z,99.90
2018-07-19T21:45:12.216Z,99.90
2018-07-19T21:47:40.645Z,99.90
2018-07-19T21:50:09.117Z,99.90
2018-07-19T21:52:37.578Z,99.90
2018-07-19T21:55:06.006Z,99.90
2018-07-19T21:57:34.469Z,99.90
2018-07-19T22:00:02.940Z,99.90
2018-07-19T22:02:31.387Z,99.90
2018-07-19T22:04:59.854Z,99.90
2018-07-19T22:07:28.277Z,99.90
2018-07-19T22:09:56.683Z,99.90
2018-07-19T22:12:25.177Z,99.90
2018-07-19T22:14:53.614Z,99.90
2018-07-19T22:17:23.085Z,99.90
2018-07-19T22:19:51.521Z,99.90
2018-07-19T22:22:19.965Z,99.90
2018-07-19T22:24:48.406Z,99.90
2018-07-19T22:27:16.828Z,99.90
2018-07-19T22:29:45.271Z,99.90
2018-07-19T22:32:13.726Z,99.90
2018-07-19T22:34:42.169Z,99.90
2018-07-19T22:37:10.593Z,99.90
2018-07-19T22:39:39.069Z,99.90
2018-07-19T22:42:07.509Z,99.90
2018-07-19T22:44:35.981Z,99.90
2018-07-19T22:47:04.439Z,99.90
2018-07-19T22:49:32.861Z,99.90
2018-07-19T22:52:01.294Z,99.90
2018-07-19T22:54:29.753Z,99.90
2018-07-19T22:56:58.227Z,99.90
2018-07-19T22:59:26.665Z,99.90
2018-07-19T23:01:55.109Z,99.90
2018-07-19T23:04:23.596Z,99.90
2018-07-19T23:06:53.054Z,99.90
2018-07-19T23:09:22.552Z,99.90
2018-07-19T23:11:50.954Z,99.90
2018-07-19T23:14:19.439Z,99.90
2018-07-19T23:16:47.902Z,99.90
2018-07-19T23:19:16.390Z,99.90
2018-07-19T23:21:44.815Z,99.90
2018-07-19T23:24:13.234Z,99.90
2018-07-19T23:26:41.720Z,99.90
2018-07-19T23:29:10.164Z,99.90
2018-07-19T23:31:38.844Z,99.90
2018-07-19T23:34:07.398Z,99.90
2018-07-19T23:36:41.100Z,99.90
2018-07-19T23:39:15.332Z,99.90
2018-07-19T23:42:01.944Z,99.90
2018-07-19T23:44:34.202Z,99.90
2018-07-19T23:47:06.569Z,99.90
2018-07-19T23:49:35.007Z,99.90
2018-07-19T23:52:03.482Z,99.90
2018-07-19T23:54:31.957Z,99.90
2018-07-19T23:57:00.509Z,99.90
2018-07-19T23:59:29.059Z,99.90
